Tropical Cyclones
[Index]
Main Index Home Page Stock Weather Photos Extreme Storms Discussion Storm News and Storm Chasing Reports Tropical Cyclones / Hurricanes / Typhoons Weather Data and Links Wild Fires / Bushfires Weather Observation Techniques Weather Picture Catalogue Tornado Pictures and Reports Stock Video Footage and DVDs for sale
Season 1996-1997 Tropical Cyclone 199718 Track Map
Season 1996-1997 Summaries: [BoM-AU] [JTWC-AU] [JTWC-SIO] [JTWC-SPAC] [JTWC-SH]
<<- Previous TC | JTWC 1996-1997 Season | Next TC ->>

click for intensity scale information  Lat/long Grid: Show Hide

 Date Labels: Show Hide

Joint Typhoon Warning Centre Cyclone Data

Name: 199718

07 Jan 1997 12:00 UTC to 13 Jan 1997 18:00 UTC

    date/time    lat    long     hPa   cat  kts
1997-01-07 12   15.7    92.8                  15          
1997-01-07 18   15.7    92.7                  20          
1997-01-08 00   15.7    92.7                  20          
1997-01-08 06   15.7    92.6                  20          
1997-01-08 12   15.7    92.5                  20          
1997-01-08 18   15.7    92.4                  20          
1997-01-09 00   15.7    92.3                  20          
1997-01-09 06   15.8    92.2                  20          
1997-01-09 12   16.0    92.1                  25          
1997-01-09 18   16.4    92.1                  25          
1997-01-10 00   16.8    92.1                  25          
1997-01-10 06   17.1    92.1                  25          
1997-01-10 12   17.4    92.1                  25          
1997-01-10 18   17.8    92.1                  30          
1997-01-11 00   18.2    92.1                  35          
1997-01-11 06   18.6    92.0            1     40          
1997-01-11 12   19.2    91.6            1     45          
1997-01-11 18   19.8    90.9            1     45          
1997-01-12 00   20.5    90.0            1     45          
1997-01-12 06   21.1    89.0            1     45          
1997-01-12 12   21.8    88.0            1     40          
1997-01-12 18   22.7    86.8                  35          
1997-01-13 00   23.6    85.6                  35          
1997-01-13 06   24.6    84.2                  35          
1997-01-13 12   25.5    82.8                  35          
1997-01-13 18   26.1    81.9                  30          
Winds are 1-min average.

Tropical cyclone tracks developed by Michael Bath using data from the Joint Typhoon Warning Centre Best Tracks and Google Maps.


[Australian Severe Weather index] [Copyright Notice] [Email Contacts] [Search This Site] [Privacy Policy]
Document: tropical_cyclone_199718.htm Updated: 18 September 2016